sensor_id;sensor_type;location;lat;lon;timestamp;temperature;humidity
53802;DHT22;39709;53.334;6.534;2023-07-13T00:02:15;17.00;1.00
53802;DHT22;39709;53.334;6.534;2023-07-13T00:04:41;16.90;1.00
53802;DHT22;39709;53.334;6.534;2023-07-13T00:07:08;16.90;1.00
53802;DHT22;39709;53.334;6.534;2023-07-13T00:09:34;16.90;1.00
53802;DHT22;39709;53.334;6.534;2023-07-13T00:12:00;16.90;1.00
53802;DHT22;39709;53.334;6.534;2023-07-13T00:14:26;16.90;1.00
53802;DHT22;39709;53.334;6.534;2023-07-13T00:16:53;16.80;1.00
53802;DHT22;39709;53.334;6.534;2023-07-13T00:19:19;16.80;1.00
53802;DHT22;39709;53.334;6.534;2023-07-13T00:21:44;16.80;1.00
53802;DHT22;39709;53.334;6.534;2023-07-13T00:24:12;16.80;1.00
53802;DHT22;39709;53.334;6.534;2023-07-13T00:26:39;16.80;1.00
53802;DHT22;39709;53.334;6.534;2023-07-13T00:29:04;16.80;1.00
53802;DHT22;39709;53.334;6.534;2023-07-13T00:31:34;16.80;1.00
53802;DHT22;39709;53.334;6.534;2023-07-13T00:34:00;16.70;1.00
53802;DHT22;39709;53.334;6.534;2023-07-13T00:36:25;16.80;1.00
53802;DHT22;39709;53.334;6.534;2023-07-13T00:38:52;16.80;1.00
53802;DHT22;39709;53.334;6.534;2023-07-13T00:41:18;16.80;1.00
53802;DHT22;39709;53.334;6.534;2023-07-13T00:43:44;16.70;1.00
53802;DHT22;39709;53.334;6.534;2023-07-13T00:46:14;16.70;1.00
53802;DHT22;39709;53.334;6.534;2023-07-13T00:48:41;16.70;1.00
53802;DHT22;39709;53.334;6.534;2023-07-13T00:51:10;16.70;1.00
53802;DHT22;39709;53.334;6.534;2023-07-13T00:53:36;16.70;1.00
53802;DHT22;39709;53.334;6.534;2023-07-13T00:56:02;16.60;1.00
53802;DHT22;39709;53.334;6.534;2023-07-13T00:58:28;16.60;1.00
53802;DHT22;39709;53.334;6.534;2023-07-13T01:00:54;16.60;1.00
53802;DHT22;39709;53.334;6.534;2023-07-13T01:03:20;16.50;7.10
53802;DHT22;39709;53.334;6.534;2023-07-13T01:05:48;16.50;6.10
53802;DHT22;39709;53.334;6.534;2023-07-13T01:08:15;16.50;14.70
53802;DHT22;39709;53.334;6.534;2023-07-13T01:10:50;16.50;14.20
53802;DHT22;39709;53.334;6.534;2023-07-13T01:13:15;16.50;11.30
53802;DHT22;39709;53.334;6.534;2023-07-13T01:15:46;16.40;13.00
53802;DHT22;39709;53.334;6.534;2023-07-13T01:18:22;16.40;17.70
53802;DHT22;39709;53.334;6.534;2023-07-13T01:20:55;16.40;19.60
53802;DHT22;39709;53.334;6.534;2023-07-13T01:23:22;16.40;22.30
53802;DHT22;39709;53.334;6.534;2023-07-13T01:25:48;16.50;23.30
53802;DHT22;39709;53.334;6.534;2023-07-13T01:28:14;16.40;24.80
53802;DHT22;39709;53.334;6.534;2023-07-13T01:30:43;16.40;27.10
53802;DHT22;39709;53.334;6.534;2023-07-13T01:33:12;16.40;18.70
53802;DHT22;39709;53.334;6.534;2023-07-13T01:35:37;16.40;22.50
53802;DHT22;39709;53.334;6.534;2023-07-13T01:38:04;16.40;25.20
53802;DHT22;39709;53.334;6.534;2023-07-13T01:40:30;16.40;20.50
53802;DHT22;39709;53.334;6.534;2023-07-13T01:42:57;16.40;21.20
53802;DHT22;39709;53.334;6.534;2023-07-13T01:45:23;16.40;17.80
53802;DHT22;39709;53.334;6.534;2023-07-13T01:47:49;16.40;18.70
53802;DHT22;39709;53.334;6.534;2023-07-13T01:50:14;16.40;16.40
53802;DHT22;39709;53.334;6.534;2023-07-13T01:52:40;16.30;17.80
53802;DHT22;39709;53.334;6.534;2023-07-13T01:55:06;16.40;10.00
53802;DHT22;39709;53.334;6.534;2023-07-13T01:57:32;16.30;14.90
53802;DHT22;39709;53.334;6.534;2023-07-13T01:59:58;16.30;22.60
53802;DHT22;39709;53.334;6.534;2023-07-13T02:02:24;16.20;28.10
53802;DHT22;39709;53.334;6.534;2023-07-13T02:04:50;16.20;27.30
53802;DHT22;39709;53.334;6.534;2023-07-13T02:07:16;16.20;27.90
53802;DHT22;39709;53.334;6.534;2023-07-13T02:09:41;16.20;30.00
53802;DHT22;39709;53.334;6.534;2023-07-13T02:12:07;16.20;31.70
53802;DHT22;39709;53.334;6.534;2023-07-13T02:14:33;16.20;29.00
53802;DHT22;39709;53.334;6.534;2023-07-13T02:16:59;16.10;32.20
53802;DHT22;39709;53.334;6.534;2023-07-13T02:19:25;16.10;32.50
53802;DHT22;39709;53.334;6.534;2023-07-13T02:21:51;16.10;30.90
53802;DHT22;39709;53.334;6.534;2023-07-13T02:24:16;16.10;29.70
53802;DHT22;39709;53.334;6.534;2023-07-13T02:26:45;16.00;24.90
53802;DHT22;39709;53.334;6.534;2023-07-13T02:29:10;16.00;20.90
53802;DHT22;39709;53.334;6.534;2023-07-13T02:31:36;16.00;17.10
53802;DHT22;39709;53.334;6.534;2023-07-13T02:34:02;16.00;13.00
53802;DHT22;39709;53.334;6.534;2023-07-13T02:36:30;16.00;8.50
53802;DHT22;39709;53.334;6.534;2023-07-13T02:38:56;16.00;9.70
53802;DHT22;39709;53.334;6.534;2023-07-13T02:41:22;16.00;6.30
53802;DHT22;39709;53.334;6.534;2023-07-13T02:43:48;16.00;5.50
53802;DHT22;39709;53.334;6.534;2023-07-13T02:46:14;16.00;8.20
53802;DHT22;39709;53.334;6.534;2023-07-13T02:48:40;16.00;5.70
53802;DHT22;39709;53.334;6.534;2023-07-13T02:51:06;16.10;1.30
53802;DHT22;39709;53.334;6.534;2023-07-13T02:53:33;16.10;1.20
53802;DHT22;39709;53.334;6.534;2023-07-13T02:55:58;16.10;1.00
53802;DHT22;39709;53.334;6.534;2023-07-13T02:58:25;16.10;1.20
53802;DHT22;39709;53.334;6.534;2023-07-13T03:00:51;16.10;1.00
53802;DHT22;39709;53.334;6.534;2023-07-13T03:03:17;16.10;3.50
53802;DHT22;39709;53.334;6.534;2023-07-13T03:05:44;16.20;1.70
53802;DHT22;39709;53.334;6.534;2023-07-13T03:08:15;16.10;5.30
53802;DHT22;39709;53.334;6.534;2023-07-13T03:10:41;16.10;1.30
53802;DHT22;39709;53.334;6.534;2023-07-13T03:13:07;16.10;4.50
53802;DHT22;39709;53.334;6.534;2023-07-13T03:15:33;16.00;2.20
53802;DHT22;39709;53.334;6.534;2023-07-13T03:17:58;16.00;7.70
53802;DHT22;39709;53.334;6.534;2023-07-13T03:20:24;16.00;6.40
53802;DHT22;39709;53.334;6.534;2023-07-13T03:22:50;15.90;9.60
53802;DHT22;39709;53.334;6.534;2023-07-13T03:25:16;15.90;9.50
53802;DHT22;39709;53.334;6.534;2023-07-13T03:27:41;15.90;11.30
53802;DHT22;39709;53.334;6.534;2023-07-13T03:30:07;15.90;7.40
53802;DHT22;39709;53.334;6.534;2023-07-13T03:32:33;15.90;8.10
53802;DHT22;39709;53.334;6.534;2023-07-13T03:34:59;16.00;6.60
53802;DHT22;39709;53.334;6.534;2023-07-13T03:37:25;16.00;4.80
53802;DHT22;39709;53.334;6.534;2023-07-13T03:39:51;15.90;7.80
53802;DHT22;39709;53.334;6.534;2023-07-13T03:42:16;15.90;8.70
53802;DHT22;39709;53.334;6.534;2023-07-13T03:44:42;15.90;13.80
53802;DHT22;39709;53.334;6.534;2023-07-13T03:47:11;16.00;10.70
53802;DHT22;39709;53.334;6.534;2023-07-13T03:49:37;15.90;16.80
53802;DHT22;39709;53.334;6.534;2023-07-13T03:52:03;16.00;17.40
53802;DHT22;39709;53.334;6.534;2023-07-13T03:54:29;15.90;19.10
53802;DHT22;39709;53.334;6.534;2023-07-13T03:56:55;16.00;18.00
53802;DHT22;39709;53.334;6.534;2023-07-13T03:59:21;16.00;22.20
53802;DHT22;39709;53.334;6.534;2023-07-13T04:01:47;16.00;26.90
53802;DHT22;39709;53.334;6.534;2023-07-13T04:04:12;15.90;46.30
53802;DHT22;39709;53.334;6.534;2023-07-13T04:06:38;15.90;50.40
53802;DHT22;39709;53.334;6.534;2023-07-13T04:09:04;15.80;68.00
53802;DHT22;39709;53.334;6.534;2023-07-13T04:11:34;15.80;83.30
53802;DHT22;39709;53.334;6.534;2023-07-13T04:14:02;15.70;99.90
53802;DHT22;39709;53.334;6.534;2023-07-13T04:16:27;15.70;99.90
53802;DHT22;39709;53.334;6.534;2023-07-13T04:18:54;15.60;99.90
53802;DHT22;39709;53.334;6.534;2023-07-13T04:21:26;15.60;99.90
53802;DHT22;39709;53.334;6.534;2023-07-13T04:23:51;15.60;99.90
53802;DHT22;39709;53.334;6.534;2023-07-13T04:26:17;15.70;99.90
53802;DHT22;39709;53.334;6.534;2023-07-13T04:28:47;15.70;99.90
53802;DHT22;39709;53.334;6.534;2023-07-13T04:31:13;15.70;99.90
53802;DHT22;39709;53.334;6.534;2023-07-13T04:33:38;15.80;99.90
53802;DHT22;39709;53.334;6.534;2023-07-13T04:36:05;15.90;99.90
53802;DHT22;39709;53.334;6.534;2023-07-13T04:38:32;15.90;99.90
53802;DHT22;39709;53.334;6.534;2023-07-13T04:41:04;16.10;99.90
53802;DHT22;39709;53.334;6.534;2023-07-13T04:43:32;16.10;99.90
53802;DHT22;39709;53.334;6.534;2023-07-13T04:46:04;16.20;99.90
53802;DHT22;39709;53.334;6.534;2023-07-13T04:48:31;16.20;99.90
53802;DHT22;39709;53.334;6.534;2023-07-13T04:50:58;16.20;99.90
53802;DHT22;39709;53.334;6.534;2023-07-13T04:53:24;16.20;99.90
53802;DHT22;39709;53.334;6.534;2023-07-13T04:55:50;16.30;99.90
53802;DHT22;39709;53.334;6.534;2023-07-13T04:58:16;16.40;99.90
53802;DHT22;39709;53.334;6.534;2023-07-13T05:00:42;16.40;99.90
53802;DHT22;39709;53.334;6.534;2023-07-13T05:03:08;16.40;99.90
53802;DHT22;39709;53.334;6.534;2023-07-13T05:05:34;16.50;99.90
53802;DHT22;39709;53.334;6.534;2023-07-13T05:08:00;16.60;99.90
53802;DHT22;39709;53.334;6.534;2023-07-13T05:10:26;16.70;99.90
53802;DHT22;39709;53.334;6.534;2023-07-13T05:12:51;16.60;99.90
53802;DHT22;39709;53.334;6.534;2023-07-13T05:15:17;16.80;99.90
53802;DHT22;39709;53.334;6.534;2023-07-13T05:17:47;16.80;99.90
53802;DHT22;39709;53.334;6.534;2023-07-13T05:20:13;16.80;99.90
53802;DHT22;39709;53.334;6.534;2023-07-13T05:22:39;16.90;98.30
53802;DHT22;39709;53.334;6.534;2023-07-13T05:25:06;17.00;98.10
53802;DHT22;39709;53.334;6.534;2023-07-13T05:27:32;17.00;94.20
53802;DHT22;39709;53.334;6.534;2023-07-13T05:29:58;17.20;87.90
53802;DHT22;39709;53.334;6.534;2023-07-13T05:32:24;17.30;84.30
53802;DHT22;39709;53.334;6.534;2023-07-13T05:34:49;17.30;59.20
53802;DHT22;39709;53.334;6.534;2023-07-13T05:37:15;17.40;51.10
53802;DHT22;39709;53.334;6.534;2023-07-13T05:39:41;17.40;65.00
53802;DHT22;39709;53.334;6.534;2023-07-13T05:42:07;17.40;68.10
53802;DHT22;39709;53.334;6.534;2023-07-13T05:44:32;17.60;46.00
53802;DHT22;39709;53.334;6.534;2023-07-13T05:46:58;17.60;24.40
53802;DHT22;39709;53.334;6.534;2023-07-13T05:49:24;17.70;14.70
53802;DHT22;39709;53.334;6.534;2023-07-13T05:51:49;17.70;19.80
53802;DHT22;39709;53.334;6.534;2023-07-13T05:54:15;17.80;6.20
53802;DHT22;39709;53.334;6.534;2023-07-13T05:56:41;17.90;6.80
53802;DHT22;39709;53.334;6.534;2023-07-13T05:59:07;17.80;7.50
53802;DHT22;39709;53.334;6.534;2023-07-13T06:01:32;18.00;2.60
53802;DHT22;39709;53.334;6.534;2023-07-13T06:03:58;17.90;16.00
53802;DHT22;39709;53.334;6.534;2023-07-13T06:06:24;18.10;6.40
53802;DHT22;39709;53.334;6.534;2023-07-13T06:08:50;18.10;1.00
53802;DHT22;39709;53.334;6.534;2023-07-13T06:11:22;18.30;1.00
53802;DHT22;39709;53.334;6.534;2023-07-13T06:13:48;18.30;1.00
53802;DHT22;39709;53.334;6.534;2023-07-13T06:16:15;18.30;1.00
53802;DHT22;39709;53.334;6.534;2023-07-13T06:18:41;18.40;1.00
53802;DHT22;39709;53.334;6.534;2023-07-13T06:21:13;18.50;1.00
53802;DHT22;39709;53.334;6.534;2023-07-13T06:23:39;18.60;1.00
53802;DHT22;39709;53.334;6.534;2023-07-13T06:26:05;18.70;1.00
53802;DHT22;39709;53.334;6.534;2023-07-13T06:28:32;18.70;1.00
53802;DHT22;39709;53.334;6.534;2023-07-13T06:30:58;18.80;1.00
53802;DHT22;39709;53.334;6.534;2023-07-13T06:33:25;18.80;1.00
53802;DHT22;39709;53.334;6.534;2023-07-13T06:35:51;19.00;1.00
53802;DHT22;39709;53.334;6.534;2023-07-13T06:38:16;19.10;1.00
53802;DHT22;39709;53.334;6.534;2023-07-13T06:40:42;19.10;1.00
53802;DHT22;39709;53.334;6.534;2023-07-13T06:43:08;19.20;1.00
53802;DHT22;39709;53.334;6.534;2023-07-13T06:45:45;19.20;1.00
53802;DHT22;39709;53.334;6.534;2023-07-13T06:48:13;19.20;1.00
53802;DHT22;39709;53.334;6.534;2023-07-13T06:50:38;19.30;1.00
53802;DHT22;39709;53.334;6.534;2023-07-13T06:53:04;19.60;1.00
53802;DHT22;39709;53.334;6.534;2023-07-13T06:55:30;19.80;1.00
53802;DHT22;39709;53.334;6.534;2023-07-13T06:57:55;20.00;1.00
53802;DHT22;39709;53.334;6.534;2023-07-13T07:00:21;19.80;1.00
53802;DHT22;39709;53.334;6.534;2023-07-13T07:02:47;19.90;1.00
53802;DHT22;39709;53.334;6.534;2023-07-13T07:05:13;19.80;1.00
53802;DHT22;39709;53.334;6.534;2023-07-13T07:07:38;19.60;1.00
53802;DHT22;39709;53.334;6.534;2023-07-13T07:10:04;19.50;1.00
53802;DHT22;39709;53.334;6.534;2023-07-13T07:12:30;19.50;1.00
53802;DHT22;39709;53.334;6.534;2023-07-13T07:14:56;19.60;1.00
53802;DHT22;39709;53.334;6.534;2023-07-13T07:17:21;19.80;1.00
53802;DHT22;39709;53.334;6.534;2023-07-13T07:19:47;20.00;1.00
53802;DHT22;39709;53.334;6.534;2023-07-13T07:22:13;20.10;1.00
53802;DHT22;39709;53.334;6.534;2023-07-13T07:24:38;20.30;1.00
53802;DHT22;39709;53.334;6.534;2023-07-13T07:27:04;20.60;1.00
53802;DHT22;39709;53.334;6.534;2023-07-13T07:29:30;20.50;1.00
53802;DHT22;39709;53.334;6.534;2023-07-13T07:31:56;20.50;1.00
53802;DHT22;39709;53.334;6.534;2023-07-13T07:34:21;20.30;1.00
53802;DHT22;39709;53.334;6.534;2023-07-13T07:36:47;20.30;1.00
53802;DHT22;39709;53.334;6.534;2023-07-13T07:39:13;20.40;1.00
53802;DHT22;39709;53.334;6.534;2023-07-13T07:41:38;20.50;1.00
53802;DHT22;39709;53.334;6.534;2023-07-13T07:44:04;20.60;1.00
53802;DHT22;39709;53.334;6.534;2023-07-13T07:46:32;20.50;1.00
53802;DHT22;39709;53.334;6.534;2023-07-13T07:48:57;20.60;1.00
53802;DHT22;39709;53.334;6.534;2023-07-13T07:51:23;20.30;1.00
53802;DHT22;39709;53.334;6.534;2023-07-13T07:53:49;20.30;1.00
53802;DHT22;39709;53.334;6.534;2023-07-13T07:56:15;20.80;1.00
53802;DHT22;39709;53.334;6.534;2023-07-13T07:58:42;20.70;1.00
53802;DHT22;39709;53.334;6.534;2023-07-13T08:01:08;20.40;1.00
53802;DHT22;39709;53.334;6.534;2023-07-13T08:03:34;20.50;1.00
53802;DHT22;39709;53.334;6.534;2023-07-13T08:06:00;20.70;1.00
53802;DHT22;39709;53.334;6.534;2023-07-13T08:08:26;20.40;1.00
53802;DHT22;39709;53.334;6.534;2023-07-13T08:10:52;20.50;1.00
53802;DHT22;39709;53.334;6.534;2023-07-13T08:13:18;20.80;1.00
53802;DHT22;39709;53.334;6.534;2023-07-13T08:15:44;20.60;1.00
53802;DHT22;39709;53.334;6.534;2023-07-13T08:18:09;20.60;1.00
53802;DHT22;39709;53.334;6.534;2023-07-13T08:20:39;20.60;1.00
53802;DHT22;39709;53.334;6.534;2023-07-13T08:23:06;21.00;1.00
53802;DHT22;39709;53.334;6.534;2023-07-13T08:25:32;20.50;1.00
53802;DHT22;39709;53.334;6.534;2023-07-13T08:27:58;20.60;1.00
53802;DHT22;39709;53.334;6.534;2023-07-13T08:30:23;21.40;1.00
53802;DHT22;39709;53.334;6.534;2023-07-13T08:32:49;21.40;1.00
53802;DHT22;39709;53.334;6.534;2023-07-13T08:35:15;21.10;1.00
53802;DHT22;39709;53.334;6.534;2023-07-13T08:37:41;20.90;1.00
53802;DHT22;39709;53.334;6.534;2023-07-13T08:40:10;20.80;1.00
53802;DHT22;39709;53.334;6.534;2023-07-13T08:47:55;20.20;1.00
53802;DHT22;39709;53.334;6.534;2023-07-13T08:50:26;20.80;1.00
53802;DHT22;39709;53.334;6.534;2023-07-13T08:52:55;20.90;1.00
53802;DHT22;39709;53.334;6.534;2023-07-13T08:55:26;21.40;1.00
53802;DHT22;39709;53.334;6.534;2023-07-13T08:57:59;20.40;1.00
53802;DHT22;39709;53.334;6.534;2023-07-13T09:01:08;21.00;1.00
53802;DHT22;39709;53.334;6.534;2023-07-13T09:03:25;21.20;1.00
53802;DHT22;39709;53.334;6.534;2023-07-13T09:05:56;21.40;1.00
53802;DHT22;39709;53.334;6.534;2023-07-13T09:11:14;22.00;1.00
53802;DHT22;39709;53.334;6.534;2023-07-13T09:16:29;21.30;1.00
53802;DHT22;39709;53.334;6.534;2023-07-13T09:19:01;21.60;1.00
53802;DHT22;39709;53.334;6.534;2023-07-13T09:21:37;21.10;1.00
53802;DHT22;39709;53.334;6.534;2023-07-13T09:27:16;21.10;1.00
53802;DHT22;39709;53.334;6.534;2023-07-13T09:29:48;20.70;1.00
53802;DHT22;39709;53.334;6.534;2023-07-13T09:32:18;20.20;1.00
53802;DHT22;39709;53.334;6.534;2023-07-13T09:34:53;19.90;1.00
53802;DHT22;39709;53.334;6.534;2023-07-13T09:37:27;19.90;1.00
53802;DHT22;39709;53.334;6.534;2023-07-13T09:39:54;19.60;1.00
53802;DHT22;39709;53.334;6.534;2023-07-13T09:42:22;19.70;1.00
53802;DHT22;39709;53.334;6.534;2023-07-13T09:44:57;20.50;1.00
53802;DHT22;39709;53.334;6.534;2023-07-13T09:47:29;20.60;1.00
53802;DHT22;39709;53.334;6.534;2023-07-13T09:50:00;20.60;1.00
53802;DHT22;39709;53.334;6.534;2023-07-13T09:52:27;20.40;1.00
53802;DHT22;39709;53.334;6.534;2023-07-13T09:54:54;20.20;1.00
53802;DHT22;39709;53.334;6.534;2023-07-13T09:57:26;20.10;1.00
53802;DHT22;39709;53.334;6.534;2023-07-13T09:59:54;20.10;1.00
53802;DHT22;39709;53.334;6.534;2023-07-13T10:02:30;19.90;99.90
53802;DHT22;39709;53.334;6.534;2023-07-13T10:05:14;20.10;99.90
53802;DHT22;39709;53.334;6.534;2023-07-13T10:07:44;20.20;99.90
53802;DHT22;39709;53.334;6.534;2023-07-13T10:10:18;20.40;99.90
53802;DHT22;39709;53.334;6.534;2023-07-13T10:12:46;20.20;99.90
53802;DHT22;39709;53.334;6.534;2023-07-13T10:15:22;20.20;99.90
53802;DHT22;39709;53.334;6.534;2023-07-13T10:17:49;20.30;99.90
53802;DHT22;39709;53.334;6.534;2023-07-13T10:20:16;20.60;99.90
53802;DHT22;39709;53.334;6.534;2023-07-13T10:22:50;20.60;99.90
53802;DHT22;39709;53.334;6.534;2023-07-13T10:25:23;20.60;99.90
53802;DHT22;39709;53.334;6.534;2023-07-13T10:27:52;20.70;99.90
53802;DHT22;39709;53.334;6.534;2023-07-13T10:30:32;21.10;99.90
53802;DHT22;39709;53.334;6.534;2023-07-13T10:33:02;21.00;99.90
53802;DHT22;39709;53.334;6.534;2023-07-13T10:35:29;21.10;99.90
53802;DHT22;39709;53.334;6.534;2023-07-13T10:38:05;20.90;99.90
53802;DHT22;39709;53.334;6.534;2023-07-13T10:40:45;20.60;99.90
53802;DHT22;39709;53.334;6.534;2023-07-13T10:43:36;20.50;99.90
53802;DHT22;39709;53.334;6.534;2023-07-13T10:46:06;20.60;99.90
53802;DHT22;39709;53.334;6.534;2023-07-13T10:48:34;20.90;99.90
53802;DHT22;39709;53.334;6.534;2023-07-13T10:51:04;20.90;99.90
53802;DHT22;39709;53.334;6.534;2023-07-13T10:53:34;20.80;99.90
53802;DHT22;39709;53.334;6.534;2023-07-13T10:56:03;20.80;99.90
53802;DHT22;39709;53.334;6.534;2023-07-13T10:58:38;20.80;99.90
53802;DHT22;39709;53.334;6.534;2023-07-13T11:01:10;21.00;99.90
53802;DHT22;39709;53.334;6.534;2023-07-13T11:03:55;21.10;99.90
53802;DHT22;39709;53.334;6.534;2023-07-13T11:08:56;21.50;99.90
53802;DHT22;39709;53.334;6.534;2023-07-13T11:11:36;21.70;99.90
53802;DHT22;39709;53.334;6.534;2023-07-13T11:14:25;21.60;99.90
53802;DHT22;39709;53.334;6.534;2023-07-13T11:16:50;21.90;99.90
53802;DHT22;39709;53.334;6.534;2023-07-13T11:22:02;21.50;99.90
53802;DHT22;39709;53.334;6.534;2023-07-13T11:24:48;21.20;99.90
53802;DHT22;39709;53.334;6.534;2023-07-13T11:27:23;21.20;99.90
53802;DHT22;39709;53.334;6.534;2023-07-13T11:30:08;21.30;99.90
53802;DHT22;39709;53.334;6.534;2023-07-13T11:32:35;21.30;99.90
53802;DHT22;39709;53.334;6.534;2023-07-13T11:35:00;21.00;99.90
53802;DHT22;39709;53.334;6.534;2023-07-13T11:37:28;20.90;99.90
53802;DHT22;39709;53.334;6.534;2023-07-13T11:39:55;20.80;99.90
53802;DHT22;39709;53.334;6.534;2023-07-13T11:42:21;21.10;99.90
53802;DHT22;39709;53.334;6.534;2023-07-13T11:44:50;21.20;99.90
53802;DHT22;39709;53.334;6.534;2023-07-13T11:47:20;21.30;99.90
53802;DHT22;39709;53.334;6.534;2023-07-13T11:49:54;21.30;99.90
53802;DHT22;39709;53.334;6.534;2023-07-13T11:52:35;21.00;99.90
53802;DHT22;39709;53.334;6.534;2023-07-13T11:55:08;20.60;99.90
53802;DHT22;39709;53.334;6.534;2023-07-13T11:58:00;20.50;99.90
53802;DHT22;39709;53.334;6.534;2023-07-13T12:00:29;20.80;99.90
53802;DHT22;39709;53.334;6.534;2023-07-13T12:02:59;20.90;99.90
53802;DHT22;39709;53.334;6.534;2023-07-13T12:05:26;20.80;99.90
53802;DHT22;39709;53.334;6.534;2023-07-13T12:07:52;21.00;99.90
53802;DHT22;39709;53.334;6.534;2023-07-13T12:10:30;21.20;99.90
53802;DHT22;39709;53.334;6.534;2023-07-13T12:13:05;21.50;99.90
53802;DHT22;39709;53.334;6.534;2023-07-13T12:15:40;21.80;99.90
53802;DHT22;39709;53.334;6.534;2023-07-13T12:18:19;21.40;99.90
53802;DHT22;39709;53.334;6.534;2023-07-13T12:20:47;21.20;99.90
53802;DHT22;39709;53.334;6.534;2023-07-13T12:23:34;21.00;99.90
53802;DHT22;39709;53.334;6.534;2023-07-13T12:26:06;20.50;1.00
53802;DHT22;39709;53.334;6.534;2023-07-13T12:28:38;20.00;1.00
53802;DHT22;39709;53.334;6.534;2023-07-13T12:31:07;19.80;1.00
53802;DHT22;39709;53.334;6.534;2023-07-13T12:33:34;19.70;1.00
53802;DHT22;39709;53.334;6.534;2023-07-13T12:36:05;19.70;1.00
53802;DHT22;39709;53.334;6.534;2023-07-13T12:38:32;19.70;1.00
53802;DHT22;39709;53.334;6.534;2023-07-13T12:40:58;19.70;1.00
53802;DHT22;39709;53.334;6.534;2023-07-13T12:43:25;19.80;1.00
53802;DHT22;39709;53.334;6.534;2023-07-13T12:46:02;19.70;1.00
53802;DHT22;39709;53.334;6.534;2023-07-13T12:48:28;19.70;1.00
53802;DHT22;39709;53.334;6.534;2023-07-13T12:50:55;19.70;1.00
53802;DHT22;39709;53.334;6.534;2023-07-13T12:53:30;19.90;1.00
53802;DHT22;39709;53.334;6.534;2023-07-13T12:56:02;20.20;1.00
53802;DHT22;39709;53.334;6.534;2023-07-13T12:58:38;20.50;1.00
53802;DHT22;39709;53.334;6.534;2023-07-13T13:01:05;20.70;1.00
53802;DHT22;39709;53.334;6.534;2023-07-13T13:03:45;20.70;1.00
53802;DHT22;39709;53.334;6.534;2023-07-13T13:08:47;21.10;1.00
53802;DHT22;39709;53.334;6.534;2023-07-13T13:11:14;21.30;1.00
53802;DHT22;39709;53.334;6.534;2023-07-13T13:13:42;21.40;99.90
53802;DHT22;39709;53.334;6.534;2023-07-13T13:18:45;21.60;99.90
53802;DHT22;39709;53.334;6.534;2023-07-13T13:21:11;21.30;99.90
53802;DHT22;39709;53.334;6.534;2023-07-13T13:23:37;20.90;99.90
53802;DHT22;39709;53.334;6.534;2023-07-13T13:26:08;20.70;99.90
53802;DHT22;39709;53.334;6.534;2023-07-13T13:28:34;21.00;99.90
53802;DHT22;39709;53.334;6.534;2023-07-13T13:31:02;21.10;99.90
53802;DHT22;39709;53.334;6.534;2023-07-13T13:33:28;21.20;99.90
53802;DHT22;39709;53.334;6.534;2023-07-13T13:35:56;21.10;99.90
53802;DHT22;39709;53.334;6.534;2023-07-13T13:38:26;21.00;99.90
53802;DHT22;39709;53.334;6.534;2023-07-13T13:40:52;21.00;99.90
53802;DHT22;39709;53.334;6.534;2023-07-13T13:43:23;20.90;99.90
53802;DHT22;39709;53.334;6.534;2023-07-13T13:45:52;20.90;99.90
53802;DHT22;39709;53.334;6.534;2023-07-13T13:48:31;21.00;99.90
53802;DHT22;39709;53.334;6.534;2023-07-13T13:50:58;20.90;99.90
53802;DHT22;39709;53.334;6.534;2023-07-13T13:53:25;20.60;99.90
53802;DHT22;39709;53.334;6.534;2023-07-13T13:55:51;20.90;99.90
53802;DHT22;39709;53.334;6.534;2023-07-13T13:58:18;20.90;99.90
53802;DHT22;39709;53.334;6.534;2023-07-13T14:00:44;21.00;99.90
53802;DHT22;39709;53.334;6.534;2023-07-13T14:03:23;21.10;99.90
53802;DHT22;39709;53.334;6.534;2023-07-13T14:05:49;21.10;99.90
53802;DHT22;39709;53.334;6.534;2023-07-13T14:08:17;21.00;99.90
53802;DHT22;39709;53.334;6.534;2023-07-13T14:10:45;21.00;99.90
53802;DHT22;39709;53.334;6.534;2023-07-13T14:13:42;21.10;99.90
53802;DHT22;39709;53.334;6.534;2023-07-13T14:16:14;21.20;99.90
53802;DHT22;39709;53.334;6.534;2023-07-13T14:18:42;21.30;99.90
53802;DHT22;39709;53.334;6.534;2023-07-13T14:21:19;21.60;99.90
53802;DHT22;39709;53.334;6.534;2023-07-13T14:23:46;21.70;99.90
53802;DHT22;39709;53.334;6.534;2023-07-13T14:26:17;21.10;99.90
53802;DHT22;39709;53.334;6.534;2023-07-13T14:28:52;21.40;99.90
53802;DHT22;39709;53.334;6.534;2023-07-13T14:31:18;21.10;99.90
53802;DHT22;39709;53.334;6.534;2023-07-13T14:33:45;21.10;99.90
53802;DHT22;39709;53.334;6.534;2023-07-13T14:36:30;21.30;99.90
53802;DHT22;39709;53.334;6.534;2023-07-13T14:38:56;21.40;99.90
53802;DHT22;39709;53.334;6.534;2023-07-13T14:41:23;21.60;99.90
53802;DHT22;39709;53.334;6.534;2023-07-13T14:43:49;21.40;99.90
53802;DHT22;39709;53.334;6.534;2023-07-13T14:46:27;21.30;99.90
53802;DHT22;39709;53.334;6.534;2023-07-13T14:49:04;21.30;99.90
53802;DHT22;39709;53.334;6.534;2023-07-13T14:51:31;21.20;99.90
53802;DHT22;39709;53.334;6.534;2023-07-13T14:54:02;21.50;99.90
53802;DHT22;39709;53.334;6.534;2023-07-13T14:56:28;21.50;99.90
53802;DHT22;39709;53.334;6.534;2023-07-13T14:58:54;21.60;99.90
53802;DHT22;39709;53.334;6.534;2023-07-13T15:01:20;21.60;99.90
53802;DHT22;39709;53.334;6.534;2023-07-13T15:03:48;21.70;99.90
53802;DHT22;39709;53.334;6.534;2023-07-13T15:06:14;22.00;99.90
53802;DHT22;39709;53.334;6.534;2023-07-13T15:08:40;22.10;99.90
53802;DHT22;39709;53.334;6.534;2023-07-13T15:11:09;22.00;99.90
53802;DHT22;39709;53.334;6.534;2023-07-13T15:13:39;22.10;99.90
53802;DHT22;39709;53.334;6.534;2023-07-13T15:16:15;22.10;99.90
53802;DHT22;39709;53.334;6.534;2023-07-13T15:18:42;21.90;99.90
53802;DHT22;39709;53.334;6.534;2023-07-13T15:21:21;21.90;99.90
53802;DHT22;39709;53.334;6.534;2023-07-13T15:23:48;22.00;99.90
53802;DHT22;39709;53.334;6.534;2023-07-13T15:26:15;22.00;99.90
53802;DHT22;39709;53.334;6.534;2023-07-13T15:28:42;21.90;99.90
53802;DHT22;39709;53.334;6.534;2023-07-13T15:33:47;21.30;99.90
53802;DHT22;39709;53.334;6.534;2023-07-13T15:36:16;21.40;99.90
53802;DHT22;39709;53.334;6.534;2023-07-13T15:38:43;21.90;99.90
53802;DHT22;39709;53.334;6.534;2023-07-13T15:41:28;22.10;99.90
53802;DHT22;39709;53.334;6.534;2023-07-13T15:43:56;22.00;99.90
53802;DHT22;39709;53.334;6.534;2023-07-13T15:46:26;21.70;99.90
53802;DHT22;39709;53.334;6.534;2023-07-13T15:48:53;21.60;99.90
53802;DHT22;39709;53.334;6.534;2023-07-13T15:51:27;21.10;99.90
53802;DHT22;39709;53.334;6.534;2023-07-13T15:53:55;21.30;99.90
53802;DHT22;39709;53.334;6.534;2023-07-13T15:56:28;21.50;99.90
53802;DHT22;39709;53.334;6.534;2023-07-13T15:58:55;21.60;99.90
53802;DHT22;39709;53.334;6.534;2023-07-13T16:01:24;21.80;99.90
53802;DHT22;39709;53.334;6.534;2023-07-13T16:03:51;22.00;99.90
53802;DHT22;39709;53.334;6.534;2023-07-13T16:06:26;21.90;99.90
53802;DHT22;39709;53.334;6.534;2023-07-13T16:08:53;22.00;99.90
53802;DHT22;39709;53.334;6.534;2023-07-13T16:11:24;22.20;99.90
53802;DHT22;39709;53.334;6.534;2023-07-13T16:13:51;22.10;99.90